createdAt,value
2023-03-29T00:01:52.872Z,97532.34
2023-03-29T00:03:55.644Z,97520.28
2023-03-29T00:06:02.864Z,97522.06
2023-03-29T00:08:05.607Z,97516.84
2023-03-29T00:10:10.620Z,97516.63
2023-03-29T00:12:14.516Z,97516.84
2023-03-29T00:14:17.073Z,97516.91
2023-03-29T00:16:20.235Z,97516.91
2023-03-29T00:18:22.992Z,97521.19
2023-03-29T00:20:25.665Z,97520.44
2023-03-29T00:22:28.260Z,97518.75
2023-03-29T00:24:30.908Z,97523.59
2023-03-29T00:26:33.512Z,97528.91
2023-03-29T00:28:37.423Z,97525.47
2023-03-29T00:30:40.002Z,97523.91
2023-03-29T00:32:42.751Z,97520.50
2023-03-29T00:34:45.791Z,97518.16
2023-03-29T00:36:50.843Z,97516.34
2023-03-29T00:38:53.431Z,97507.28
2023-03-29T00:40:56.295Z,97504.03
2023-03-29T00:43:00.404Z,97507.69
2023-03-29T00:45:17.351Z,97515.25
2023-03-29T00:47:25.848Z,97516.31
2023-03-29T00:49:29.359Z,97507.75
2023-03-29T00:51:35.239Z,97494.78
2023-03-29T00:53:43.344Z,97493.94
2023-03-29T00:55:52.637Z,97480.06
2023-03-29T00:57:57.642Z,97482.59
2023-03-29T01:00:04.366Z,97480.59
2023-03-29T01:02:08.587Z,97480.84
2023-03-29T01:04:18.500Z,97480.09
2023-03-29T01:06:24.807Z,97498.19
2023-03-29T01:08:30.602Z,97474.94
2023-03-29T01:10:38.888Z,97477.50
2023-03-29T01:12:46.991Z,97476.72
2023-03-29T01:14:53.223Z,97463.69
2023-03-29T01:16:55.990Z,97463.69
2023-03-29T01:19:02.202Z,97468.84
2023-03-29T01:21:15.436Z,97468.88
2023-03-29T01:23:34.006Z,97468.34
2023-03-29T01:25:44.646Z,97475.50
2023-03-29T01:27:55.416Z,97471.34
2023-03-29T01:30:04.153Z,97471.41
2023-03-29T01:32:12.429Z,97471.25
2023-03-29T01:34:21.895Z,97473.94
2023-03-29T01:36:30.757Z,97470.91
2023-03-29T01:38:39.458Z,97464.25
2023-03-29T01:40:42.264Z,97464.31
2023-03-29T01:42:49.503Z,97464.47
2023-03-29T01:44:59.990Z,97459.31
2023-03-29T01:47:11.348Z,97461.94
2023-03-29T01:49:22.353Z,97460.00
2023-03-29T01:51:29.746Z,97453.22
2023-03-29T01:53:37.743Z,97446.41
2023-03-29T01:55:44.083Z,97446.31
2023-03-29T01:57:48.298Z,97434.47
2023-03-29T01:59:55.472Z,97427.63
2023-03-29T02:02:01.618Z,97429.50
2023-03-29T02:04:09.138Z,97434.31
2023-03-29T02:06:14.139Z,97418.75
2023-03-29T02:08:18.547Z,97416.50
2023-03-29T02:10:22.651Z,97420.06
2023-03-29T02:12:25.256Z,97430.47
2023-03-29T02:14:29.400Z,97429.22
2023-03-29T02:16:37.506Z,97421.38
2023-03-29T02:18:41.202Z,97425.03
2023-03-29T02:20:47.281Z,97422.47
2023-03-29T02:22:57.730Z,97420.56
2023-03-29T02:25:04.774Z,97425.84
2023-03-29T02:27:07.600Z,97413.91
2023-03-29T02:29:10.403Z,97412.34
2023-03-29T02:31:17.261Z,97412.47
2023-03-29T02:33:25.680Z,97408.94
2023-03-29T02:35:34.943Z,97401.91
2023-03-29T02:37:41.010Z,97398.38
2023-03-29T02:39:43.831Z,97397.66
2023-03-29T02:41:49.579Z,97397.13
2023-03-29T02:43:53.608Z,97392.84
2023-03-29T02:45:57.014Z,97387.88
2023-03-29T02:48:03.115Z,97376.56
2023-03-29T02:50:08.526Z,97377.53
2023-03-29T02:52:15.363Z,97372.28
2023-03-29T02:54:20.672Z,97363.72
2023-03-29T02:56:23.223Z,97351.53
2023-03-29T02:58:26.529Z,97362.66
2023-03-29T03:00:29.148Z,97358.19
2023-03-29T03:02:31.744Z,97364.25
2023-03-29T03:04:35.493Z,97357.28
2023-03-29T03:06:40.057Z,97352.94
2023-03-29T03:08:42.619Z,97350.28
2023-03-29T03:10:45.761Z,97351.31
2023-03-29T03:12:50.041Z,97346.91
2023-03-29T03:14:52.961Z,97352.53
2023-03-29T03:16:55.570Z,97343.97
2023-03-29T03:18:58.444Z,97353.44
2023-03-29T03:21:02.378Z,97349.25
2023-03-29T03:23:08.960Z,97360.69
2023-03-29T03:25:12.092Z,97362.00
2023-03-29T03:27:14.640Z,97364.84
2023-03-29T03:29:17.277Z,97358.03
2023-03-29T03:31:21.469Z,97357.22
2023-03-29T03:33:24.821Z,97357.16
2023-03-29T03:35:27.401Z,97362.78
2023-03-29T03:37:30.170Z,97361.09
2023-03-29T03:39:34.122Z,97353.47
2023-03-29T03:41:36.735Z,97356.91
2023-03-29T03:43:41.459Z,97367.44
2023-03-29T03:45:44.120Z,97357.00
2023-03-29T03:47:49.452Z,97349.38
2023-03-29T03:49:52.562Z,97350.28
2023-03-29T03:51:55.182Z,97349.44
2023-03-29T03:53:57.737Z,97340.81
2023-03-29T03:56:02.187Z,97334.84
2023-03-29T03:58:04.762Z,97336.63
2023-03-29T04:00:19.240Z,97332.19
2023-03-29T04:02:22.191Z,97331.38
2023-03-29T04:04:25.494Z,97326.19
2023-03-29T04:06:30.532Z,97326.13
2023-03-29T04:08:33.211Z,97325.28
2023-03-29T04:10:36.210Z,97332.19
2023-03-29T04:12:40.691Z,97335.59
2023-03-29T04:14:43.316Z,97338.09
2023-03-29T04:16:46.386Z,97338.63
2023-03-29T04:18:48.983Z,97332.91
2023-03-29T04:20:52.023Z,97334.69
2023-03-29T04:22:55.205Z,97333.81
2023-03-29T04:24:57.771Z,97333.81
2023-03-29T04:27:00.324Z,97332.09
2023-03-29T04:29:04.700Z,97334.69
2023-03-29T04:31:11.587Z,97335.53
2023-03-29T04:33:14.206Z,97355.44
2023-03-29T04:35:17.841Z,97335.53
2023-03-29T04:37:22.306Z,97338.97
2023-03-29T04:39:31.868Z,97349.38
2023-03-29T04:41:34.805Z,97345.03
2023-03-29T04:43:40.123Z,97346.00
2023-03-29T04:45:44.727Z,97344.22
2023-03-29T04:47:47.386Z,97352.03
2023-03-29T04:49:50.021Z,97358.22
2023-03-29T04:51:53.217Z,97341.78
2023-03-29T04:53:55.854Z,97345.13
2023-03-29T04:55:59.470Z,97358.13
2023-03-29T04:58:02.776Z,97350.34
2023-03-29T05:00:14.284Z,97348.59
2023-03-29T05:02:18.220Z,97353.69
2023-03-29T05:04:20.845Z,97353.72
2023-03-29T05:06:23.607Z,97356.28
2023-03-29T05:08:26.150Z,97356.34
2023-03-29T05:10:28.708Z,97356.34
2023-03-29T05:12:31.303Z,97357.16
2023-03-29T05:14:33.868Z,97354.53
2023-03-29T05:16:39.268Z,97355.38
2023-03-29T05:18:43.234Z,97357.97
2023-03-29T05:20:45.828Z,97351.00
2023-03-29T05:22:48.660Z,97353.69
2023-03-29T05:24:52.825Z,97352.81
2023-03-29T05:26:56.118Z,97351.94
2023-03-29T05:28:58.812Z,97352.81
2023-03-29T05:31:02.246Z,97353.69
2023-03-29T05:33:05.651Z,97360.50
2023-03-29T05:35:11.296Z,97365.63
2023-03-29T05:37:13.977Z,97356.06
2023-03-29T05:39:16.604Z,97353.47
2023-03-29T05:41:19.186Z,97365.44
2023-03-29T05:43:21.807Z,97353.94
2023-03-29T05:45:24.721Z,97349.63
2023-03-29T05:47:27.903Z,97360.16
2023-03-29T05:49:31.010Z,97349.78
2023-03-29T05:51:35.325Z,97353.19
2023-03-29T05:53:38.269Z,97361.84
2023-03-29T05:55:40.874Z,97352.44
2023-03-29T05:57:43.474Z,97359.41
2023-03-29T05:59:46.887Z,97361.94
2023-03-29T06:01:49.472Z,97368.84
2023-03-29T06:03:52.553Z,97370.47
2023-03-29T06:06:00.423Z,97367.81
2023-03-29T06:08:04.504Z,97357.47
2023-03-29T06:10:09.643Z,97363.50
2023-03-29T06:12:12.241Z,97361.75
2023-03-29T06:14:14.882Z,97365.94
2023-03-29T06:16:17.460Z,97368.44
2023-03-29T06:18:20.150Z,97370.88
2023-03-29T06:20:22.697Z,97371.63
2023-03-29T06:22:25.273Z,97367.19
2023-03-29T06:24:29.206Z,97366.22
2023-03-29T06:26:31.740Z,97371.34
2023-03-29T06:28:34.478Z,97381.63
2023-03-29T06:30:37.072Z,97378.75
2023-03-29T06:32:39.908Z,97376.47
2023-03-29T06:34:42.798Z,97374.25
2023-03-29T06:36:45.850Z,97372.09
2023-03-29T06:38:48.415Z,97369.59
2023-03-29T06:40:52.719Z,97373.94
2023-03-29T06:42:57.844Z,97375.22
2023-03-29T06:45:00.460Z,97370.78
2023-03-29T06:47:03.798Z,97370.03
2023-03-29T06:49:06.405Z,97369.34
2023-03-29T06:51:09.178Z,97358.47
2023-03-29T06:53:11.762Z,97368.13
2023-03-29T06:55:15.858Z,97365.63
2023-03-29T06:57:19.797Z,97374.25
2023-03-29T06:59:22.381Z,97375.00
2023-03-29T07:01:24.968Z,97373.22
2023-03-29T07:03:27.908Z,97365.34
2023-03-29T07:05:31.647Z,97375.69
2023-03-29T07:07:53.460Z,97366.03
2023-03-29T07:09:56.017Z,97368.88
2023-03-29T07:11:59.363Z,97364.59
2023-03-29T07:14:03.911Z,97378.31
2023-03-29T07:16:07.857Z,97375.53
2023-03-29T07:18:11.075Z,97376.41
2023-03-29T07:20:14.891Z,97377.69
2023-03-29T07:22:17.446Z,97376.81
2023-03-29T07:24:20.321Z,97377.84
2023-03-29T07:26:28.623Z,97382.00
2023-03-29T07:28:32.305Z,97372.59
2023-03-29T07:30:37.169Z,97379.59
2023-03-29T07:32:40.335Z,97379.47
2023-03-29T07:34:42.941Z,97377.63
2023-03-29T07:36:45.520Z,97380.53
2023-03-29T07:38:48.690Z,97379.47
2023-03-29T07:40:51.544Z,97389.31
2023-03-29T07:42:58.619Z,97392.50
2023-03-29T07:45:01.409Z,97390.59
2023-03-29T07:47:05.520Z,97399.50
2023-03-29T07:49:08.641Z,97397.00
2023-03-29T07:51:11.816Z,97401.88
2023-03-29T07:53:14.458Z,97406.50
2023-03-29T07:55:17.219Z,97401.28
2023-03-29T07:57:19.805Z,97400.53
2023-03-29T07:59:22.624Z,97402.28
2023-03-29T08:01:25.640Z,97407.53
2023-03-29T08:03:29.647Z,97413.59
2023-03-29T08:05:40.654Z,97417.97
2023-03-29T08:07:46.187Z,97415.84
2023-03-29T08:09:48.770Z,97419.81
2023-03-29T08:11:51.882Z,97419.81
2023-03-29T08:13:54.786Z,97411.59
2023-03-29T08:15:57.359Z,97415.59
2023-03-29T08:17:59.992Z,97407.06
2023-03-29T08:20:04.257Z,97415.78
2023-03-29T08:22:06.902Z,97423.66
2023-03-29T08:24:09.597Z,97418.31
2023-03-29T08:26:12.407Z,97430.97
2023-03-29T08:28:14.975Z,97424.03
2023-03-29T08:30:17.552Z,97418.19
2023-03-29T08:32:20.420Z,97418.25
2023-03-29T08:34:23.024Z,97413.91
2023-03-29T08:36:27.620Z,97425.25
2023-03-29T08:38:30.249Z,97427.00
2023-03-29T08:40:32.894Z,97426.13
2023-03-29T08:42:55.222Z,97425.25
2023-03-29T08:45:07.923Z,97428.72
2023-03-29T08:47:20.192Z,97421.72
2023-03-29T08:49:23.534Z,97424.31
2023-03-29T08:51:31.594Z,97420.75
2023-03-29T08:53:40.137Z,97416.41
2023-03-29T08:55:45.282Z,97408.56
2023-03-29T08:57:51.613Z,97407.59
2023-03-29T08:59:58.310Z,97406.72
2023-03-29T09:02:03.323Z,97404.06
2023-03-29T09:04:10.569Z,97398.78
2023-03-29T09:06:14.569Z,97398.72
2023-03-29T09:08:20.445Z,97401.97
2023-03-29T09:10:31.477Z,97400.91
2023-03-29T09:12:46.631Z,97411.16
2023-03-29T09:14:58.596Z,97399.09
2023-03-29T09:17:06.974Z,97394.41
2023-03-29T09:19:20.904Z,97391.75
2023-03-29T09:21:31.168Z,97398.38
2023-03-29T09:23:52.658Z,97402.06
2023-03-29T09:26:04.616Z,97398.94
2023-03-29T09:28:11.405Z,97398.31
2023-03-29T09:30:21.377Z,97394.41
2023-03-29T09:32:30.265Z,97390.94
2023-03-29T09:34:39.726Z,97378.88
2023-03-29T09:36:52.385Z,97376.16
2023-03-29T09:38:56.917Z,97372.69
2023-03-29T09:41:06.750Z,97364.00
2023-03-29T09:43:13.286Z,97368.59
2023-03-29T09:45:15.985Z,97374.03
2023-03-29T09:47:24.806Z,97367.28
2023-03-29T09:49:32.295Z,97358.38
2023-03-29T09:51:35.654Z,97366.88
2023-03-29T09:53:38.443Z,97359.59
2023-03-29T09:55:47.801Z,97361.66
2023-03-29T09:57:52.412Z,97363.00
2023-03-29T09:59:55.951Z,97349.56
2023-03-29T10:02:08.462Z,97353.44
2023-03-29T10:04:12.151Z,97351.63
2023-03-29T10:06:15.566Z,97347.66
2023-03-29T10:08:22.320Z,97349.75
2023-03-29T10:10:29.613Z,97351.69
2023-03-29T10:12:35.963Z,97345.13
2023-03-29T10:14:44.619Z,97356.28
2023-03-29T10:16:48.145Z,97351.06
2023-03-29T10:18:51.217Z,97346.91
2023-03-29T10:21:00.191Z,97344.50
2023-03-29T10:23:02.981Z,97358.28
2023-03-29T10:25:14.442Z,97356.72
2023-03-29T10:27:23.224Z,97355.81
2023-03-29T10:29:28.235Z,97357.88
2023-03-29T10:31:32.985Z,97345.94
2023-03-29T10:33:37.447Z,97342.38
2023-03-29T10:35:42.787Z,97344.97
2023-03-29T10:37:50.441Z,97333.69
2023-03-29T10:39:55.414Z,97337.75
2023-03-29T10:42:00.295Z,97342.13
2023-03-29T10:44:03.571Z,97335.91
2023-03-29T10:46:13.275Z,97330.75
2023-03-29T10:48:17.912Z,97328.00
2023-03-29T10:50:20.703Z,97334.66
2023-03-29T10:52:23.586Z,97321.56
2023-03-29T10:54:33.980Z,97320.72
2023-03-29T10:56:41.997Z,97319.88
2023-03-29T10:59:05.085Z,97319.53
2023-03-29T11:01:17.815Z,97329.06
2023-03-29T11:03:35.257Z,97325.22
2023-03-29T11:05:45.210Z,97318.22
2023-03-29T11:08:02.301Z,97319.88
2023-03-29T11:10:28.393Z,97317.75
2023-03-29T11:12:40.554Z,97317.75
2023-03-29T11:14:53.783Z,97320.25
2023-03-29T11:17:09.412Z,97323.69
2023-03-29T11:19:44.328Z,97300.28
2023-03-29T11:21:57.045Z,97306.00
2023-03-29T11:24:15.772Z,97311.06
2023-03-29T11:26:23.826Z,97304.06
2023-03-29T11:28:35.343Z,97310.66
2023-03-29T11:30:44.961Z,97335.38
2023-03-29T11:32:57.836Z,97318.25
2023-03-29T11:35:08.965Z,97309.31
2023-03-29T11:37:20.312Z,97316.47
2023-03-29T11:39:31.358Z,97310.16
2023-03-29T11:41:38.852Z,97311.25
2023-03-29T11:43:45.674Z,97309.53
2023-03-29T11:45:54.835Z,97313.38
2023-03-29T11:48:03.034Z,97312.84
2023-03-29T11:50:15.463Z,97307.75
2023-03-29T11:52:22.457Z,97307.94
2023-03-29T11:54:31.842Z,97312.00
2023-03-29T11:56:40.805Z,97307.16
2023-03-29T11:58:49.868Z,97313.16
2023-03-29T12:00:57.920Z,97312.47
2023-03-29T12:03:07.584Z,97315.34
2023-03-29T12:05:16.906Z,97310.47
2023-03-29T12:07:25.163Z,97309.16
2023-03-29T12:09:34.188Z,97302.81
2023-03-29T12:11:41.477Z,97301.75
2023-03-29T12:13:48.656Z,97300.34
2023-03-29T12:15:57.908Z,97286.94
2023-03-29T12:18:08.339Z,97288.47
2023-03-29T12:20:16.765Z,97289.88
2023-03-29T12:22:19.430Z,97286.47
2023-03-29T12:24:22.665Z,97290.56
2023-03-29T12:26:43.035Z,97287.34
2023-03-29T12:29:07.107Z,97292.50
2023-03-29T12:31:18.212Z,97288.88
2023-03-29T12:34:02.683Z,97289.88
2023-03-29T12:36:20.419Z,97288.63
2023-03-29T12:38:24.801Z,97300.19
2023-03-29T12:40:29.362Z,97298.91
2023-03-29T12:42:31.928Z,97287.84
2023-03-29T12:44:34.845Z,97288.78
2023-03-29T12:46:37.560Z,97287.00
2023-03-29T12:48:42.338Z,97280.53
2023-03-29T12:50:50.024Z,97290.00
2023-03-29T12:52:54.047Z,97288.88
2023-03-29T12:54:58.944Z,97278.38
2023-03-29T12:57:03.882Z,97271.66
2023-03-29T12:59:17.148Z,97284.53
2023-03-29T13:01:32.547Z,97276.34
2023-03-29T13:03:48.265Z,97276.19
2023-03-29T13:06:01.101Z,97278.84
2023-03-29T13:08:27.395Z,97266.69
2023-03-29T13:10:37.210Z,97265.63
2023-03-29T13:12:42.198Z,97263.22
2023-03-29T13:14:47.370Z,97259.91
2023-03-29T13:16:50.243Z,97265.69
2023-03-29T13:19:03.606Z,97266.88
2023-03-29T13:21:17.267Z,97271.13
2023-03-29T13:23:34.318Z,97268.56
2023-03-29T13:25:50.277Z,97265.34
2023-03-29T13:27:58.689Z,97275.22
2023-03-29T13:30:27.150Z,97275.78
2023-03-29T13:32:47.062Z,97273.53
2023-03-29T13:34:58.584Z,97271.38
2023-03-29T13:37:14.083Z,97276.09
2023-03-29T13:39:24.274Z,97275.38
2023-03-29T13:41:32.472Z,97279.41
2023-03-29T13:43:52.776Z,97281.78
2023-03-29T13:46:21.045Z,97284.09
2023-03-29T13:48:28.340Z,97285.88
2023-03-29T13:50:37.403Z,97279.41
2023-03-29T13:52:44.894Z,97278.50
2023-03-29T13:54:58.393Z,97276.31
2023-03-29T13:57:06.736Z,97281.72
2023-03-29T13:59:15.435Z,97278.63
2023-03-29T14:01:24.386Z,97281.81
2023-03-29T14:03:30.068Z,97278.53
2023-03-29T14:05:34.866Z,97268.47
2023-03-29T14:07:40.746Z,97279.28
2023-03-29T14:09:47.033Z,97279.38
2023-03-29T14:11:52.056Z,97280.59
2023-03-29T14:13:56.394Z,97278.91
2023-03-29T14:16:04.239Z,97279.88
2023-03-29T14:18:10.971Z,97283.53
2023-03-29T14:20:16.009Z,97286.22
2023-03-29T14:22:21.793Z,97273.03
2023-03-29T14:24:28.069Z,97271.50
2023-03-29T14:26:33.086Z,97265.41
2023-03-29T14:28:37.984Z,97255.00
2023-03-29T14:30:46.921Z,97250.78
2023-03-29T14:32:51.173Z,97247.31
2023-03-29T14:34:53.861Z,97245.66
2023-03-29T14:36:56.564Z,97252.69
2023-03-29T14:39:03.335Z,97237.69
2023-03-29T14:41:07.567Z,97246.38
2023-03-29T14:43:11.131Z,97245.91
2023-03-29T14:45:18.438Z,97245.56
2023-03-29T14:47:27.276Z,97245.63
2023-03-29T14:49:30.669Z,97237.78
2023-03-29T14:51:34.316Z,97230.66
2023-03-29T14:53:38.005Z,97230.84
2023-03-29T14:55:41.707Z,97231.00
2023-03-29T14:57:44.335Z,97215.75
2023-03-29T14:59:55.316Z,97217.44
2023-03-29T15:01:59.332Z,97218.00
2023-03-29T15:04:06.171Z,97214.78
2023-03-29T15:06:08.828Z,97210.25
2023-03-29T15:08:16.525Z,97219.97
2023-03-29T15:10:20.749Z,97217.50
2023-03-29T15:12:23.469Z,97216.25
2023-03-29T15:14:29.158Z,97205.16
2023-03-29T15:16:32.815Z,97205.09
2023-03-29T15:18:39.977Z,97200.53
2023-03-29T15:20:44.787Z,97199.25
2023-03-29T15:22:56.832Z,97193.84
2023-03-29T15:24:59.919Z,97185.03
2023-03-29T15:27:05.483Z,97181.81
2023-03-29T15:29:13.373Z,97179.34
2023-03-29T15:31:18.951Z,97179.38
2023-03-29T15:33:24.804Z,97175.44
2023-03-29T15:35:28.847Z,97175.59
2023-03-29T15:37:32.336Z,97176.88
2023-03-29T15:39:34.947Z,97177.19
2023-03-29T15:41:37.515Z,97175.53
2023-03-29T15:43:41.213Z,97172.59
2023-03-29T15:45:44.936Z,97170.25
2023-03-29T15:47:49.398Z,97167.06
2023-03-29T15:49:52.143Z,97161.16
2023-03-29T15:51:56.027Z,97169.13
2023-03-29T15:53:58.600Z,97161.63
2023-03-29T15:56:04.547Z,97159.94
2023-03-29T15:58:07.331Z,97166.97
2023-03-29T16:00:14.729Z,97158.31
2023-03-29T16:02:20.218Z,97155.31
2023-03-29T16:04:23.801Z,97162.25
2023-03-29T16:06:26.605Z,97155.47
2023-03-29T16:08:30.693Z,97160.81
2023-03-29T16:10:33.374Z,97160.34
2023-03-29T16:12:38.368Z,97163.22
2023-03-29T16:14:43.011Z,97160.53
2023-03-29T16:16:45.907Z,97160.16
2023-03-29T16:18:48.630Z,97162.88
2023-03-29T16:20:51.735Z,97164.72
2023-03-29T16:22:55.179Z,97158.91
2023-03-29T16:24:59.408Z,97166.25
2023-03-29T16:27:02.937Z,97166.69
2023-03-29T16:29:05.556Z,97154.03
2023-03-29T16:31:10.398Z,97155.41
2023-03-29T16:33:13.045Z,97142.81
2023-03-29T16:35:22.650Z,97148.22
2023-03-29T16:37:25.555Z,97148.56
2023-03-29T16:39:28.139Z,97148.91
2023-03-29T16:41:33.016Z,97147.81
2023-03-29T16:43:38.532Z,97148.09
2023-03-29T16:45:41.277Z,97144.00
2023-03-29T16:47:44.647Z,97138.84
2023-03-29T16:49:48.610Z,97138.00
2023-03-29T16:51:51.458Z,97142.56
2023-03-29T16:53:54.102Z,97142.25
2023-03-29T16:55:57.374Z,97141.81
2023-03-29T16:58:01.566Z,97140.88
2023-03-29T17:00:06.777Z,97144.25
2023-03-29T17:02:12.999Z,97134.97
2023-03-29T17:04:15.635Z,97139.44
2023-03-29T17:06:18.209Z,97133.94
2023-03-29T17:08:22.091Z,97135.78
2023-03-29T17:10:25.429Z,97147.13
2023-03-29T17:12:28.017Z,97139.53
2023-03-29T17:14:31.897Z,97139.84
2023-03-29T17:16:34.554Z,97145.28
2023-03-29T17:18:37.674Z,97144.69
2023-03-29T17:20:40.546Z,97138.75
2023-03-29T17:22:43.139Z,97136.47
2023-03-29T17:24:45.716Z,97141.56
2023-03-29T17:26:48.257Z,97144.19
2023-03-29T17:28:51.229Z,97142.38
2023-03-29T17:30:55.188Z,97135.47
2023-03-29T17:32:58.269Z,97133.16
2023-03-29T17:35:00.946Z,97134.09
2023-03-29T17:37:03.651Z,97120.22
2023-03-29T17:39:06.950Z,97117.69
2023-03-29T17:41:09.926Z,97105.94
2023-03-29T17:43:12.545Z,97099.06
2023-03-29T17:45:16.184Z,97100.09
2023-03-29T17:47:20.108Z,97110.41
2023-03-29T17:49:22.709Z,97112.53
2023-03-29T17:51:25.761Z,97107.00
2023-03-29T17:53:28.420Z,97119.44
2023-03-29T17:55:30.984Z,97122.75
2023-03-29T17:57:33.534Z,97110.50
2023-03-29T17:59:36.950Z,97117.00
2023-03-29T18:01:39.662Z,97119.94
2023-03-29T18:03:43.796Z,97112.81
2023-03-29T18:05:46.415Z,97114.72
2023-03-29T18:07:48.960Z,97115.63
2023-03-29T18:09:53.195Z,97116.66
2023-03-29T18:11:55.733Z,97118.72
2023-03-29T18:14:00.687Z,97118.56
2023-03-29T18:16:04.429Z,97123.34
2023-03-29T18:18:07.281Z,97123.53
2023-03-29T18:20:12.721Z,97129.63
2023-03-29T18:22:15.378Z,97118.81
2023-03-29T18:24:17.997Z,97129.28
2023-03-29T18:26:22.140Z,97128.69
2023-03-29T18:28:25.175Z,97131.47
2023-03-29T18:30:27.742Z,97132.31
2023-03-29T18:32:30.436Z,97134.84
2023-03-29T18:34:33.396Z,97136.78
2023-03-29T18:36:37.491Z,97129.94
2023-03-29T18:38:40.421Z,97131.56
2023-03-29T18:40:43.155Z,97128.22
2023-03-29T18:42:45.721Z,97133.44
2023-03-29T18:44:48.525Z,97137.91
2023-03-29T18:46:51.324Z,97131.91
2023-03-29T18:48:54.404Z,97134.44
2023-03-29T18:50:57.399Z,97127.34
2023-03-29T18:53:01.511Z,97122.38
2023-03-29T18:55:04.445Z,97126.66
2023-03-29T18:57:07.091Z,97128.69
2023-03-29T18:59:09.880Z,97129.38
2023-03-29T19:01:13.855Z,97126.53
2023-03-29T19:03:16.605Z,97124.31
2023-03-29T19:05:19.417Z,97123.59
2023-03-29T19:07:22.564Z,97122.75
2023-03-29T19:09:27.293Z,97107.50
2023-03-29T19:11:30.553Z,97101.50
2023-03-29T19:13:33.185Z,97090.63
2023-03-29T19:15:35.854Z,97090.63
2023-03-29T19:17:38.449Z,97081.28
2023-03-29T19:19:41.286Z,97087.66
2023-03-29T19:21:43.827Z,97097.72
2023-03-29T19:23:46.425Z,97100.28
2023-03-29T19:25:54.353Z,97118.06
2023-03-29T19:27:57.523Z,97124.94
2023-03-29T19:30:00.543Z,97124.25
2023-03-29T19:32:03.498Z,97121.63
2023-03-29T19:34:06.542Z,97109.47
2023-03-29T19:36:10.182Z,97098.75
2023-03-29T19:38:13.271Z,97100.28
2023-03-29T19:40:16.052Z,97104.97
2023-03-29T19:42:19.962Z,97095.75
2023-03-29T19:44:24.140Z,97098.91
2023-03-29T19:46:28.232Z,97101.53
2023-03-29T19:48:30.866Z,97102.69
2023-03-29T19:50:33.460Z,97093.81
2023-03-29T19:52:36.059Z,97099.13
2023-03-29T19:54:38.741Z,97089.44
2023-03-29T19:56:42.669Z,97099.00
2023-03-29T19:58:46.795Z,97088.44
2023-03-29T20:00:50.633Z,97086.66
2023-03-29T20:02:55.590Z,97079.56
2023-03-29T20:04:58.287Z,97075.25
2023-03-29T20:07:00.967Z,97076.19
2023-03-29T20:09:05.076Z,97078.78
2023-03-29T20:11:10.043Z,97081.34
2023-03-29T20:13:13.613Z,97077.19
2023-03-29T20:15:19.090Z,97077.28
2023-03-29T20:17:22.177Z,97070.34
2023-03-29T20:19:25.346Z,97064.28
2023-03-29T20:21:28.430Z,97062.41
2023-03-29T20:23:31.513Z,97062.34
2023-03-29T20:25:36.216Z,97052.84
2023-03-29T20:27:41.107Z,97057.25
2023-03-29T20:29:43.684Z,97053.63
2023-03-29T20:31:48.328Z,97051.09
2023-03-29T20:33:53.700Z,97055.56
2023-03-29T20:35:58.519Z,97048.47
2023-03-29T20:38:01.144Z,97039.00
2023-03-29T20:40:05.713Z,97042.38
2023-03-29T20:42:08.277Z,97040.94
2023-03-29T20:44:12.526Z,97042.56
2023-03-29T20:46:18.267Z,97037.41
2023-03-29T20:48:23.192Z,97026.00
2023-03-29T20:50:29.572Z,97036.53
2023-03-29T20:52:35.994Z,97027.06
2023-03-29T20:54:39.659Z,97021.09
2023-03-29T20:56:44.342Z,97027.91
2023-03-29T20:58:46.989Z,97033.06
2023-03-29T21:00:50.272Z,97031.16
2023-03-29T21:02:55.047Z,97025.00
2023-03-29T21:05:00.237Z,97026.84
2023-03-29T21:07:04.991Z,97017.44
2023-03-29T21:09:07.634Z,97025.56
2023-03-29T21:11:13.010Z,97022.25
2023-03-29T21:13:15.755Z,97024.00
2023-03-29T21:15:19.789Z,97021.00
2023-03-29T21:17:22.630Z,97019.06
2023-03-29T21:19:25.247Z,97019.00
2023-03-29T21:21:29.947Z,97018.06
2023-03-29T21:23:33.025Z,97016.97
2023-03-29T21:25:35.684Z,97013.97
2023-03-29T21:27:38.754Z,97013.38
2023-03-29T21:29:41.332Z,97008.47
2023-03-29T21:31:43.929Z,96997.31
2023-03-29T21:33:46.517Z,97002.38
2023-03-29T21:35:49.270Z,96998.19
2023-03-29T21:37:53.571Z,96999.00
2023-03-29T21:39:59.149Z,96995.59
2023-03-29T21:42:01.707Z,96993.75
2023-03-29T21:44:04.538Z,96989.56
2023-03-29T21:46:07.908Z,96992.69
2023-03-29T21:48:10.629Z,96992.78
2023-03-29T21:50:13.312Z,96988.31
2023-03-29T21:52:15.879Z,96982.75
2023-03-29T21:54:19.820Z,96990.47
2023-03-29T21:56:23.070Z,96985.41
2023-03-29T21:58:25.853Z,96985.72
2023-03-29T22:00:28.703Z,96991.94
2023-03-29T22:02:31.644Z,96985.72
2023-03-29T22:04:37.184Z,96978.88
2023-03-29T22:06:40.087Z,96976.16
2023-03-29T22:08:42.694Z,96980.88
2023-03-29T22:10:46.538Z,96978.34
2023-03-29T22:12:49.676Z,96977.56
2023-03-29T22:14:52.227Z,96978.44
2023-03-29T22:16:54.841Z,96973.97
2023-03-29T22:18:57.958Z,96974.72
2023-03-29T22:21:00.527Z,96971.19
2023-03-29T22:23:03.311Z,96982.34
2023-03-29T22:25:06.866Z,96978.00
2023-03-29T22:27:11.046Z,96972.38
2023-03-29T22:29:13.678Z,96976.00
2023-03-29T22:31:18.469Z,96978.41
2023-03-29T22:33:21.036Z,96970.28
2023-03-29T22:35:23.595Z,96962.81
2023-03-29T22:37:26.167Z,96960.44
2023-03-29T22:39:29.765Z,96961.88
2023-03-29T22:41:32.405Z,96960.88
2023-03-29T22:43:36.507Z,96956.25
2023-03-29T22:45:39.170Z,96960.47
2023-03-29T22:47:41.775Z,96961.06
2023-03-29T22:49:44.334Z,96964.19
2023-03-29T22:51:46.956Z,96958.50
2023-03-29T22:53:49.779Z,96962.53
2023-03-29T22:55:52.729Z,96963.19
2023-03-29T22:57:55.436Z,96959.56
2023-03-29T22:59:59.374Z,96963.81
2023-03-29T23:02:01.953Z,96950.63
2023-03-29T23:04:04.854Z,96950.72
2023-03-29T23:06:08.026Z,96961.47
2023-03-29T23:08:10.567Z,96963.91
2023-03-29T23:10:13.597Z,96961.53
2023-03-29T23:12:16.194Z,96953.66
2023-03-29T23:14:18.941Z,96957.72
2023-03-29T23:16:23.113Z,96957.91
2023-03-29T23:18:27.728Z,96962.25
2023-03-29T23:20:30.552Z,96959.41
2023-03-29T23:22:33.896Z,96962.16
2023-03-29T23:24:36.462Z,96961.25
2023-03-29T23:26:39.038Z,96946.91
2023-03-29T23:28:42.214Z,96960.78
2023-03-29T23:30:45.180Z,96964.13
2023-03-29T23:32:49.421Z,96965.34
2023-03-29T23:34:51.996Z,96961.09
2023-03-29T23:36:54.544Z,96971.28
2023-03-29T23:38:58.681Z,96970.00
2023-03-29T23:41:03.686Z,96969.22
2023-03-29T23:43:06.422Z,96974.56
2023-03-29T23:45:12.648Z,96969.31
2023-03-29T23:47:15.643Z,96970.28
2023-03-29T23:49:22.713Z,96964.91
2023-03-29T23:51:28.823Z,96966.69
2023-03-29T23:53:32.248Z,96978.31
2023-03-29T23:55:34.767Z,96978.19
2023-03-29T23:57:37.303Z,96985.53
2023-03-29T23:59:40.019Z,96985.19
